Time;durP1;ratioP1;P1;durP2;ratioP2;P2;SDS_P1;SDS_P2;PMS_P1;PMS_P2;Temp;Humidity;BMP_temperature;BMP_pressure;BME280_temperature;BME280_humidity;BME280_pressure;Samples;Min_cycle;Max_cycle;Signal;HPM_P1;HPM_P2
2022/10/21 00:00:33;;;;;;;50.97;29.40;;;;;;;10.88;100.00;67976.50;4781052;29;20051;-87
2022/10/21 00:03:08;;;;;;;52.42;32.28;;;;;;;10.81;100.00;67975.00;4758906;29;20502;-89
2022/10/21 00:05:33;;;;;;;51.83;31.98;;;;;;;10.91;100.00;67980.47;4776647;29;20051;-87
2022/10/21 00:08:02;;;;;;;54.17;30.25;;;;;;;10.90;100.00;67979.31;4776307;29;20410;-86
2022/10/21 00:10:27;;;;;;;56.83;35.20;;;;;;;10.96;100.00;67986.16;4812899;29;20051;-86
2022/10/21 00:12:55;;;;;;;52.83;32.58;;;;;;;11.05;100.00;67995.78;4822451;29;20051;-87
2022/10/21 00:15:24;;;;;;;49.03;32.85;;;;;;;11.05;100.00;67995.78;4808960;29;20046;-87
2022/10/21 00:17:52;;;;;;;57.33;34.00;;;;;;;11.12;100.00;68000.50;4816193;29;20154;-87
2022/10/21 00:20:18;;;;;;;53.50;33.25;;;;;;;;;;4836149;29;20046;-86
2022/10/21 00:22:49;;;;;;;51.85;32.03;;;;;;;11.17;100.00;68008.84;4820098;29;20527;-87
2022/10/21 00:25:14;;;;;;;54.60;34.60;;;;;;;11.21;100.00;68018.72;4883500;29;20101;-87
2022/10/21 00:27:43;;;;;;;55.45;34.85;;;;;;;11.22;100.00;68019.84;4898819;29;20673;-87
2022/10/21 00:30:17;;;;;;;56.10;33.17;;;;;;;11.16;100.00;68008.25;4883791;29;20044;-87
2022/10/21 00:32:45;;;;;;;55.92;33.08;;;;;;;11.23;100.00;68013.56;4899756;29;20047;-87
2022/10/21 00:35:18;;;;;;;51.65;31.75;;;;;;;11.19;100.00;68016.44;4868488;29;20041;-87
2022/10/21 00:37:44;;;;;;;58.40;32.92;;;;;;;11.24;100.00;68014.69;4894676;29;20663;-87
2022/10/21 00:40:15;;;;;;;54.17;30.95;;;;;;;11.30;100.00;68023.59;4885921;29;20059;-87
2022/10/21 00:42:46;;;;;;;48.83;31.02;;;;;;;11.31;100.00;68022.06;4874788;29;20512;-89
2022/10/21 00:45:42;;;;;;;53.58;32.45;;;;;;;11.43;100.00;68035.69;4871766;29;20069;-87
2022/10/21 00:48:27;;;;;;;52.28;32.70;;;;;;;11.49;100.00;68050.50;4872528;29;20065;-87
2022/10/21 00:51:14;;;;;;;57.75;33.85;;;;;;;11.57;100.00;68051.03;4872851;29;20131;-87
2022/10/21 00:53:49;;;;;;;51.75;33.50;;;;;;;11.63;100.00;68059.94;4866729;29;20136;-86
2022/10/21 00:59:25;;;;;;;44.50;29.80;;;;;;;;;;4771484;29;20062;-87
2022/10/21 01:01:53;;;;;;;44.63;28.98;;;;;;;;;;4766271;29;20043;-87
2022/10/21 01:04:19;;;;;;;46.10;30.27;;;;;;;11.88;100.00;68088.38;4818388;29;20046;-87
2022/10/21 01:07:06;;;;;;;41.70;28.85;;;;;;;11.83;100.00;68080.00;4811991;29;20143;-87
2022/10/21 01:09:38;;;;;;;47.53;29.05;;;;;;;11.93;100.00;68093.47;4848530;29;20659;-88
2022/10/21 01:12:11;;;;;;;48.63;29.27;;;;;;;11.98;100.00;68096.47;4822061;29;20054;-87
2022/10/21 01:15:08;;;;;;;47.63;29.52;;;;;;;;;;4814818;29;20079;-86
2022/10/21 01:18:00;;;;;;;48.10;29.00;;;;;;;;;;4797754;29;20047;-86
2022/10/21 01:21:05;;;;;;;49.78;29.92;;;;;;;12.06;100.00;68102.91;4805992;29;20038;-86
2022/10/21 01:24:13;;;;;;;49.15;31.00;;;;;;;12.08;100.00;68109.94;4756612;29;20040;-86
2022/10/21 01:27:09;;;;;;;56.47;30.60;;;;;;;12.15;100.00;68118.47;4759578;29;20040;-91
2022/10/21 01:29:55;;;;;;;59.08;32.85;;;;;;;12.15;100.00;68112.56;4767161;29;20048;-87
2022/10/21 01:32:28;;;;;;;53.42;30.90;;;;;;;12.18;100.00;68121.88;4742462;29;20048;-87
2022/10/21 01:35:12;;;;;;;48.55;31.15;;;;;;;12.18;100.00;68119.19;4728606;30;20109;-86
2022/10/21 01:38:02;;;;;;;50.08;30.90;;;;;;;12.26;100.00;68127.72;4760863;29;20047;-87
2022/10/21 01:41:06;;;;;;;55.40;32.20;;;;;;;12.26;100.00;68125.06;4791792;29;20050;-87
2022/10/21 01:43:34;;;;;;;54.88;33.88;;;;;;;12.32;100.00;68136.66;4790858;29;20043;-87
2022/10/21 01:46:05;;;;;;;51.22;32.25;;;;;;;12.35;100.00;68145.97;4789712;29;20053;-87
2022/10/21 01:48:36;;;;;;;51.10;31.67;;;;;;;12.36;100.00;68141.19;4781226;29;20506;-90
2022/10/21 01:51:04;;;;;;;54.30;33.03;;;;;;;12.39;100.00;68139.25;4786001;29;20064;-87
2022/10/21 01:53:34;;;;;;;52.75;31.65;;;;;;;;;;4764878;29;20055;-87
2022/10/21 01:56:05;;;;;;;;;;;;;;;12.50;100.00;68157.09;4766696;29;20444;-88
2022/10/21 01:58:34;;;;;;;57.63;32.13;;;;;;;12.38;100.00;68144.03;4739859;29;19918;-87
2022/10/21 02:01:03;;;;;;;52.13;32.33;;;;;;;12.45;100.00;68148.19;4747099;29;20659;-87
2022/10/21 02:03:35;;;;;;;51.10;33.10;;;;;;;12.49;100.00;68155.97;4778155;29;20540;-87
2022/10/21 02:06:00;;;;;;;50.28;32.28;;;;;;;12.52;100.00;68156.69;4831549;29;20042;-86
2022/10/21 02:08:26;;;;;;;51.10;30.42;;;;;;;12.52;100.00;68154.03;4802731;29;20106;-87
2022/10/21 02:11:02;;;;;;;51.97;31.17;;;;;;;12.54;100.00;68161.63;4805012;29;20046;-87
2022/10/21 02:13:41;;;;;;;54.03;33.10;;;;;;;12.56;100.00;68161.25;4816333;29;20046;-86
2022/10/21 02:16:08;;;;;;;57.78;32.67;;;;;;;12.52;100.00;68153.47;4821519;29;20045;-86
2022/10/21 02:18:34;;;;;;;50.45;31.20;;;;;;;12.54;100.00;68158.97;4854250;29;20600;-87
2022/10/21 02:21:13;;;;;;;52.80;31.67;;;;;;;12.50;100.00;68161.88;4858788;29;20124;-87
2022/10/21 02:23:48;;;;;;;51.58;29.05;;;;;;;12.51;100.00;68157.66;4862785;29;20045;-86
2022/10/21 02:26:13;;;;;;;50.25;30.33;;;;;;;12.49;100.00;68155.97;4845932;29;20046;-87
2022/10/21 02:28:42;;;;;;;50.78;30.77;;;;;;;12.42;100.00;68153.91;4835931;29;20050;-86
2022/10/21 02:31:14;;;;;;;49.97;29.98;;;;;;;12.38;100.00;68144.03;4835197;29;20688;-87
2022/10/21 02:33:52;;;;;;;52.33;32.83;;;;;;;12.42;100.00;68153.91;4817711;29;20049;-87
2022/10/21 02:36:46;;;;;;;48.50;29.43;;;;;;;;;;4836662;29;20132;-87
2022/10/21 02:39:42;;;;;;;49.97;31.33;;;;;;;12.30;100.00;68140.28;4820967;29;20283;-86
2022/10/21 02:42:12;;;;;;;47.03;29.40;;;;;;;12.31;100.00;68135.50;4834481;29;20553;-86
2022/10/21 02:44:37;;;;;;;49.88;30.77;;;;;;;12.32;100.00;68137.22;4849486;29;20045;-86
2022/10/21 02:47:03;;;;;;;48.03;30.48;;;;;;;12.30;100.00;68134.94;4846284;29;20707;-86
2022/10/21 02:49:29;;;;;;;49.40;31.02;;;;;;;12.33;100.00;68137.78;4854461;29;20057;-88
2022/10/21 02:51:54;;;;;;;53.45;31.10;;;;;;;12.27;100.00;68131.53;4845877;29;20045;-86
2022/10/21 02:54:20;;;;;;;54.60;31.60;;;;;;;12.29;100.00;68133.81;4903444;29;20047;-86
2022/10/21 02:56:45;;;;;;;53.85;30.77;;;;;;;;;;4891966;29;20049;-88
2022/10/21 02:59:10;;;;;;;49.17;31.15;;;;;;;12.38;100.00;68143.47;4886061;29;20060;-89
2022/10/21 03:01:36;;;;;;;53.60;29.58;;;;;;;12.43;100.00;68146.47;4885721;29;20483;-86
2022/10/21 03:04:01;;;;;;;50.47;30.90;;;;;;;12.51;100.00;68155.56;4870328;29;20129;-87
2022/10/21 03:06:26;;;;;;;52.20;31.63;;;;;;;12.51;100.00;68155.00;4876767;29;20044;-87
2022/10/21 03:08:54;;;;;;;49.78;29.88;;;;;;;;;;4892024;29;20047;-86
2022/10/21 03:11:20;;;;;;;54.30;32.47;;;;;;;12.49;100.00;68155.97;4885334;29;20064;-87
2022/10/21 03:13:45;;;;;;;54.47;30.73;;;;;;;12.51;100.00;68155.00;4899413;29;20514;-88
2022/10/21 03:16:32;;;;;;;49.17;29.38;;;;;;;12.46;100.00;68151.97;4899121;29;20068;-86
2022/10/21 03:19:00;;;;;;;53.28;31.40;;;;;;;12.41;100.00;68144.75;4895697;29;20180;-86
2022/10/21 03:21:40;;;;;;;51.63;29.23;;;;;;;12.46;100.00;68151.97;4880114;29;20040;-86
2022/10/21 03:24:11;;;;;;;51.72;31.52;;;;;;;12.38;100.00;68138.69;4879060;29;20229;-87
2022/10/21 03:26:40;;;;;;;51.42;29.30;;;;;;;12.32;100.00;68136.66;4890957;29;20127;-87
2022/10/21 03:29:21;;;;;;;52.17;30.73;;;;;;;12.36;100.00;68141.75;4882868;29;20262;-87
2022/10/21 03:31:58;;;;;;;51.78;32.15;;;;;;;12.36;100.00;68141.75;4849715;29;20056;-88
2022/10/21 03:34:23;;;;;;;60.42;34.03;;;;;;;;;;4858139;29;20051;-87
2022/10/21 03:36:48;;;;;;;68.00;35.38;;;;;;;12.12;100.00;68112.38;4869435;29;20041;-87
2022/10/21 03:39:14;;;;;;;59.33;34.80;;;;;;;;;;4832520;29;20041;-87
2022/10/21 03:41:44;;;;;;;63.03;35.25;;;;;;;12.01;100.00;68099.31;4833814;29;20042;-86
2022/10/21 03:54:30;;;;;;;51.97;29.48;;;;;;;11.85;100.00;68084.34;5979376;23;20032;-85
2022/10/21 03:56:58;;;;;;;62.30;33.65;;;;;;;11.87;100.00;68081.88;4921046;29;20060;-89
2022/10/21 03:59:24;;;;;;;57.97;31.90;;;;;;;11.89;100.00;68086.81;4890447;29;20104;-87
2022/10/21 04:01:58;;;;;;;60.00;32.80;;;;;;;11.85;100.00;68084.94;4889172;29;20057;-88
2022/10/21 04:04:23;;;;;;;56.50;33.00;;;;;;;11.86;100.00;68086.09;4873410;29;20579;-88
2022/10/21 04:06:49;;;;;;;57.15;33.03;;;;;;;11.85;100.00;68090.28;4850102;29;20061;-87
2022/10/21 04:09:17;;;;;;;50.47;32.00;;;;;;;;;;4830317;29;20194;-88
2022/10/21 04:11:55;;;;;;;57.53;33.90;;;;;;;11.81;100.00;68079.81;4831599;29;20056;-87
2022/10/21 04:14:26;;;;;;;58.58;32.22;;;;;;;;;;4832751;29;20041;-86
2022/10/21 04:16:54;;;;;;;59.50;29.15;;;;;;;11.68;100.00;68065.59;4842097;29;20045;-87
2022/10/21 04:19:22;;;;;;;50.85;30.60;;;;;;;11.64;100.00;68061.63;4834552;29;20081;-87
2022/10/21 04:21:48;;;;;;;54.33;31.70;;;;;;;11.66;100.00;68061.25;4843266;29;20148;-87
2022/10/21 04:24:18;;;;;;;51.58;31.25;;;;;;;;;;4843260;29;20041;-87
2022/10/21 04:26:52;;;;;;;50.20;29.50;;;;;;;11.67;100.00;68062.38;4807311;29;20530;-89
2022/10/21 04:29:46;;;;;;;50.80;28.42;;;;;;;11.58;100.00;68054.25;4787599;29;20050;-87
2022/10/21 04:32:12;;;;;;;54.22;31.10;;;;;;;11.47;100.00;68042.91;4781281;29;20497;-87
2022/10/21 04:34:40;;;;;;;52.95;31.20;;;;;;;11.55;100.00;68050.84;4762533;29;20052;-87
2022/10/21 04:37:05;;;;;;;55.45;31.77;;;;;;;11.47;100.00;68042.34;4743826;30;20126;-87
2022/10/21 04:39:31;;;;;;;54.78;30.27;;;;;;;11.33;100.00;68027.00;4746112;30;20492;-88
2022/10/21 04:41:56;;;;;;;58.55;32.92;;;;;;;11.30;100.00;68024.16;4746133;30;20068;-87
2022/10/21 04:44:22;;;;;;;61.58;32.85;;;;;;;11.33;100.00;68023.78;4734429;30;20512;-87
2022/10/21 04:46:47;;;;;;;59.78;33.72;;;;;;;;;;4726556;30;20721;-87
2022/10/21 04:49:24;;;;;;;65.28;27.70;;;;;;;;;;4730544;30;20049;-86
2022/10/21 04:51:49;;;;;;;54.53;28.13;;;;;;;;;;4702689;30;20050;-86
2022/10/21 04:57:41;;;;;;;53.72;32.45;;;;;;;;;;4709001;30;20301;-88
2022/10/21 05:00:08;;;;;;;52.00;30.92;;;;;;;11.09;100.00;68000.31;4732578;29;20716;-87
2022/10/21 05:02:33;;;;;;;59.65;32.90;;;;;;;11.13;100.00;68004.84;4782090;29;20075;-86
2022/10/21 05:04:58;;;;;;;52.33;29.65;;;;;;;11.15;100.00;68007.13;4794221;29;20139;-87
2022/10/21 05:07:24;;;;;;;50.67;30.83;;;;;;;11.18;100.00;68010.53;4792447;29;20507;-89
2022/10/21 05:09:49;;;;;;;52.28;30.73;;;;;;;11.21;100.00;68013.38;4794878;29;20372;-86
2022/10/21 05:12:14;;;;;;;54.20;32.25;;;;;;;11.18;100.00;68009.97;4823310;29;20145;-89
2022/10/21 05:14:40;;;;;;;53.72;31.50;;;;;;;11.20;100.00;68012.25;4839311;29;20047;-88
2022/10/21 05:17:05;;;;;;;50.15;28.80;;;;;;;11.10;100.00;68006.78;4805399;29;20050;-86
2022/10/21 05:19:31;;;;;;;49.58;29.15;;;;;;;11.02;100.00;67992.94;4801737;29;20042;-86
2022/10/21 05:21:56;;;;;;;57.17;30.10;;;;;;;11.03;100.00;67993.50;4820144;29;20409;-87
2022/10/21 05:24:37;;;;;;;56.08;31.15;;;;;;;11.05;100.00;68001.69;4828185;29;20478;-85
2022/10/21 05:27:12;;;;;;;56.28;29.42;;;;;;;11.06;100.00;68002.81;4817611;29;20134;-87
2022/10/21 05:29:37;;;;;;;56.90;28.13;;;;;;;10.92;100.00;67981.03;4814109;29;20095;-85
2022/10/21 05:32:02;;;;;;;54.25;28.50;;;;;;;;;;4819252;29;20215;-86
2022/10/21 05:34:28;;;;;;;55.70;33.03;;;;;;;;;;4826202;29;20038;-86
2022/10/21 05:36:53;;;;;;;57.28;33.20;;;;;;;11.13;100.00;68004.84;4824765;29;20129;-87
2022/10/21 05:39:18;;;;;;;55.85;31.83;;;;;;;11.21;100.00;68013.38;4803353;29;20524;-87
2022/10/21 05:41:44;;;;;;;51.28;28.70;;;;;;;11.17;100.00;68008.84;4831574;29;20058;-86
2022/10/21 05:44:09;;;;;;;54.72;31.85;;;;;;;;;;4824707;29;20046;-87
2022/10/21 05:46:34;;;;;;;48.60;26.48;;;;;;;11.15;100.00;68011.91;4817284;29;20078;-85
2022/10/21 05:49:05;;;;;;;52.85;30.55;;;;;;;11.16;100.00;68005.59;4835893;29;20056;-86
2022/10/21 05:51:31;;;;;;;44.03;26.77;;;;;;;11.13;100.00;68004.84;4824872;29;20513;-85
2022/10/21 05:53:57;;;;;;;54.55;31.13;;;;;;;11.19;100.00;68011.09;4859538;29;20055;-87
2022/10/21 05:56:25;;;;;;;50.90;28.98;;;;;;;11.19;100.00;68009.03;4871925;29;20056;-86
2022/10/21 05:58:50;;;;;;;51.33;27.80;;;;;;;;;;4868425;29;20045;-86
2022/10/21 06:01:16;;;;;;;50.20;29.42;;;;;;;11.21;100.00;68013.94;4893481;29;20056;-86
2022/10/21 06:03:41;;;;;;;47.88;31.42;;;;;;;11.25;100.00;68018.50;4890726;29;20081;-88
2022/10/21 06:06:08;;;;;;;50.30;28.98;;;;;;;11.17;100.00;68006.75;4889709;29;20104;-89
2022/10/21 06:08:37;;;;;;;48.85;27.05;;;;;;;11.23;100.00;68015.66;4864438;29;20061;-85
2022/10/21 06:11:12;;;;;;;47.58;28.50;;;;;;;11.16;100.00;68008.25;4873080;29;20523;-85
2022/10/21 06:13:41;;;;;;;50.38;30.40;;;;;;;11.14;100.00;68003.34;4891295;29;20048;-87
2022/10/21 06:16:06;;;;;;;56.13;31.00;;;;;;;;;;4863936;29;20282;-88
2022/10/21 06:18:35;;;;;;;47.90;25.67;;;;;;;11.17;100.00;68006.75;4884951;29;20049;-87
2022/10/21 06:21:01;;;;;;;45.53;28.55;;;;;;;11.09;100.00;67999.75;4849079;29;20064;-86
2022/10/21 06:23:26;;;;;;;52.80;29.10;;;;;;;11.14;100.00;68003.34;4864648;29;20052;-87
2022/10/21 06:26:02;;;;;;;44.92;26.63;;;;;;;;;;4890325;29;20052;-86
2022/10/21 06:28:37;;;;;;;41.85;24.10;;;;;;;11.19;100.00;68011.09;4877852;29;20045;-88
2022/10/21 06:31:03;;;;;;;46.35;25.48;;;;;;;11.17;100.00;68009.41;4873004;29;20052;-87
2022/10/21 06:33:29;;;;;;;44.53;28.10;;;;;;;11.21;100.00;68011.28;4871718;29;20113;-89
2022/10/21 06:35:55;;;;;;;44.40;27.30;;;;;;;11.27;100.00;68020.19;4855496;29;20057;-85
2022/10/21 06:38:33;;;;;;;45.90;27.60;;;;;;;11.26;100.00;68019.06;4831063;29;20051;-87
2022/10/21 06:41:08;;;;;;;43.55;26.73;;;;;;;;;;4811299;29;20046;-85
2022/10/21 06:43:34;;;;;;;39.00;25.55;;;;;;;11.25;100.00;68017.94;4816733;29;20053;-86
2022/10/21 06:46:07;;;;;;;37.65;25.70;;;;;;;11.16;100.00;68005.03;4793591;29;20051;-86
2022/10/21 06:48:33;;;;;;;39.97;23.67;;;;;;;;;;4813827;29;20042;-86
2022/10/21 06:51:05;;;;;;;45.53;26.45;;;;;;;11.10;100.00;67998.78;4814737;29;20062;-85
2022/10/21 06:53:31;;;;;;;43.95;27.60;;;;;;;11.16;100.00;68007.69;4800492;29;20042;-86
2022/10/21 06:56:00;;;;;;;41.35;27.33;;;;;;;;;;4805111;29;20502;-85
2022/10/21 06:58:25;;;;;;;39.83;24.23;;;;;;;11.13;100.00;68004.28;4816220;29;20141;-87
2022/10/21 07:00:50;;;;;;;46.67;27.33;;;;;;;;;;4762690;29;20496;-86
2022/10/21 07:03:16;;;;;;;39.00;26.27;;;;;;;11.18;100.00;68007.88;4808726;29;20034;-86
2022/10/21 07:05:41;;;;;;;43.17;25.48;;;;;;;11.11;100.00;68007.94;4795769;29;20284;-86
2022/10/21 07:08:06;;;;;;;43.70;26.30;;;;;;;11.12;100.00;68003.16;4804306;29;20050;-87
2022/10/21 07:10:32;;;;;;;44.13;28.15;;;;;;;11.17;100.00;68008.84;4815172;29;20423;-86
2022/10/21 07:12:57;;;;;;;41.00;26.88;;;;;;;11.27;100.00;68020.19;4871083;29;20108;-85
2022/10/21 07:15:22;;;;;;;41.00;24.73;;;;;;;11.29;100.00;68023.03;4860346;29;20107;-86
2022/10/21 07:17:48;;;;;;;41.70;25.33;;;;;;;11.26;100.00;68019.06;4878047;29;20063;-87
2022/10/21 07:20:14;;;;;;;38.08;24.42;;;;;;;11.28;100.00;68026.66;4876095;29;20060;-86
2022/10/21 07:22:39;;;;;;;45.17;25.75;;;;;;;;;;4876640;29;20049;-87
2022/10/21 07:25:04;;;;;;;45.70;26.95;;;;;;;;;;4892127;29;20605;-87
2022/10/21 07:27:30;;;;;;;37.42;24.83;;;;;;;11.39;100.00;68031.13;4877989;29;20037;-86
2022/10/21 07:29:55;;;;;;;38.13;25.33;;;;;;;;;;4875730;29;20048;-87
2022/10/21 07:32:20;;;;;;;39.90;25.90;;;;;;;11.60;100.00;68051.22;4877760;29;20056;-86
2022/10/21 07:34:45;;;;;;;40.83;26.15;;;;;;;;;;4891466;29;20341;-86
2022/10/21 07:37:11;;;;;;;40.50;23.73;;;;;;;11.72;100.00;68070.16;4877538;29;20045;-86
2022/10/21 07:39:36;;;;;;;39.97;24.17;;;;;;;11.80;100.00;68076.03;4875805;29;20417;-86
2022/10/21 07:42:02;;;;;;;38.50;25.33;;;;;;;11.81;100.00;68080.38;4891031;29;20048;-86
2022/10/21 07:44:27;;;;;;;39.38;24.13;;;;;;;11.90;100.00;68085.28;4877925;29;20631;-85
2022/10/21 07:46:53;;;;;;;34.35;23.45;;;;;;;11.98;100.00;68098.59;4879503;29;20060;-85
2022/10/21 07:49:19;;;;;;;31.58;21.63;;;;;;;;;;4876283;29;20068;-86
2022/10/21 07:51:45;;;;;;;31.98;21.42;;;;;;;12.16;100.00;68119.03;4876709;29;20049;-86
2022/10/21 07:54:13;;;;;;;31.73;19.67;;;;;;;12.19;100.00;68120.31;4876052;29;20132;-86
2022/10/21 07:56:42;;;;;;;26.13;17.73;;;;;;;12.25;100.00;68126.56;4875567;29;20045;-88
2022/10/21 07:59:09;;;;;;;28.23;18.10;;;;;;;12.27;100.00;68128.28;4877098;29;20153;-86
2022/10/21 08:01:35;;;;;;;27.25;18.20;;;;;;;12.33;100.00;68138.34;4876081;29;20065;-88
2022/10/21 08:04:01;;;;;;;27.95;18.35;;;;;;;12.36;100.00;68141.75;4876642;29;20531;-86
2022/10/21 08:06:27;;;;;;;26.83;18.88;;;;;;;12.37;100.00;68142.91;4875976;29;20068;-87
2022/10/21 08:08:56;;;;;;;27.17;17.83;;;;;;;12.40;100.00;68145.75;4877136;29;20048;-87
2022/10/21 08:11:32;;;;;;;28.00;18.75;;;;;;;;;;4875840;29;20041;-86
2022/10/21 08:13:58;;;;;;;24.08;17.45;;;;;;;12.45;100.00;68150.84;4876288;29;20785;-87
2022/10/21 08:16:23;;;;;;;26.02;17.88;;;;;;;12.46;100.00;68146.63;4877613;29;20068;-88
2022/10/21 08:18:49;;;;;;;24.98;17.80;;;;;;;12.47;100.00;68153.69;4874783;29;20044;-86
2022/10/21 08:21:15;;;;;;;28.58;18.52;;;;;;;12.49;100.00;68153.28;4860651;29;20045;-86
2022/10/21 08:23:40;;;;;;;21.63;16.73;;;;;;;;;;4876300;29;20041;-86
2022/10/21 08:26:07;;;;;;;29.05;17.08;;;;;;;;;;4876322;29;20063;-86
2022/10/21 08:28:32;;;;;;;23.92;17.02;;;;;;;12.57;100.00;68164.47;4878220;29;20041;-88
2022/10/21 08:31:10;;;;;;;22.52;17.50;;;;;;;12.64;100.00;68173.00;4879876;29;20045;-87
2022/10/21 08:33:36;;;;;;;26.85;17.00;;;;;;;12.68;100.00;68176.41;4879771;29;20039;-87
2022/10/21 08:36:06;;;;;;;23.90;16.90;;;;;;;12.73;100.00;68182.66;4895159;29;20052;-88
2022/10/21 08:38:32;;;;;;;22.73;15.68;;;;;;;12.78;100.00;68188.34;4902440;29;20587;-87
2022/10/21 08:41:00;;;;;;;21.50;15.25;;;;;;;12.84;100.00;68192.50;4887344;29;20081;-89
2022/10/21 08:43:30;;;;;;;20.85;13.60;;;;;;;;;;4887974;29;20040;-88
2022/10/21 08:46:14;;;;;;;19.05;13.43;;;;;;;13.00;100.00;68206.88;4887810;29;20044;-89
2022/10/21 08:48:46;;;;;;;20.40;14.82;;;;;;;13.02;100.00;68215.06;4892667;29;20097;-87
2022/10/21 08:51:18;;;;;;;20.23;14.73;;;;;;;;;;4889029;29;20116;-89
2022/10/21 08:53:47;;;;;;;22.10;12.88;;;;;;;13.16;100.00;68230.41;4887129;29;20046;-86
2022/10/21 08:56:13;;;;;;;;;;;;;;;13.24;100.00;68239.53;4890258;29;20041;-88
2022/10/21 08:58:39;;;;;;;20.85;12.95;;;;;;;13.22;100.00;68234.56;4880816;29;19979;-86
2022/10/21 09:01:17;;;;;;;21.42;13.18;;;;;;;13.32;100.00;68248.66;4875475;29;20052;-87
2022/10/21 09:03:58;;;;;;;18.00;12.93;;;;;;;13.41;100.00;68258.31;4875650;29;20061;-86
2022/10/21 09:07:05;;;;;;;17.27;11.65;;;;;;;13.51;100.00;68267.00;4875303;29;20650;-87
2022/10/21 09:09:42;;;;;;;16.45;12.15;;;;;;;13.54;100.00;68273.09;4855166;29;20126;-86
2022/10/21 09:12:28;;;;;;;16.83;11.60;;;;;;;13.62;100.00;68278.94;4875515;29;20542;-88
2022/10/21 09:14:59;;;;;;;14.20;10.30;;;;;;;13.68;100.00;68288.44;4873708;29;20036;-87
2022/10/21 09:18:01;;;;;;;16.05;11.32;;;;;;;13.76;100.00;68294.88;4875453;29;20049;-86
2022/10/21 09:20:40;;;;;;;16.50;10.50;;;;;;;13.84;100.00;68300.16;4874006;29;20048;-87
2022/10/21 09:23:16;;;;;;;13.70;9.50;;;;;;;13.91;100.00;68310.81;4876260;29;20040;-87
2022/10/21 09:25:53;;;;;;;13.90;9.63;;;;;;;13.98;100.00;68318.75;4874574;29;20072;-87
2022/10/21 09:28:19;;;;;;;14.75;9.40;;;;;;;14.10;100.00;68331.88;4891525;29;20044;-87
2022/10/21 09:30:44;;;;;;;15.98;8.98;;;;;;;14.15;100.00;68340.78;4875291;29;20052;-87
2022/10/21 09:33:32;;;;;;;13.00;8.68;;;;;;;14.28;100.00;68351.78;4875257;29;20045;-86
2022/10/21 09:36:12;;;;;;;15.80;8.40;;;;;;;14.35;100.00;68360.28;4875540;29;20041;-87
2022/10/21 09:39:01;;;;;;;12.48;8.23;;;;;;;14.43;100.00;68369.41;4889185;29;20033;-86
2022/10/21 09:41:32;;;;;;;12.68;7.50;;;;;;;14.48;100.00;68377.22;4885701;29;20041;-88
2022/10/21 09:43:57;;;;;;;10.45;6.32;;;;;;;14.55;100.00;68382.50;4889202;29;20037;-87
2022/10/21 09:46:23;;;;;;;11.23;7.78;;;;;;;14.63;100.00;68391.63;4888710;29;20089;-88
2022/10/21 09:48:51;;;;;;;11.98;6.72;;;;;;;14.68;100.00;68398.88;4872645;29;20064;-88
2022/10/21 09:51:25;;;;;;;12.10;6.93;;;;;;;14.72;100.00;68403.41;4889265;29;20181;-88
2022/10/21 09:53:54;;;;;;;9.68;6.60;;;;;;;14.78;100.00;68410.25;4887654;29;20065;-86
2022/10/21 10:12:05;;;;;;;10.27;6.35;;;;;;;15.00;100.00;68432.63;4914310;23;20431;-86
2022/10/21 10:14:36;;;;;;;11.23;6.43;;;;;;;15.04;100.00;68436.59;4933773;29;20135;-86
2022/10/21 10:17:27;;;;;;;12.73;6.20;;;;;;;15.04;100.00;68436.59;4908880;29;20107;-85
2022/10/21 10:20:04;;;;;;;11.70;6.57;;;;;;;15.05;100.00;68441.00;4919756;29;20044;-86
2022/10/21 10:22:34;;;;;;;13.45;5.85;;;;;;;;;;4931394;29;20058;-87
2022/10/21 13:08:27;;;;;;;11.10;6.70;;;;;;;16.50;100.00;68602.25;4479159;23;20051;-85
2022/10/21 13:11:12;;;;;;;10.23;5.97;;;;;;;16.56;100.00;68603.16;4924351;29;20522;-85
2022/10/21 13:13:48;;;;;;;11.52;6.95;;;;;;;16.63;100.00;68616.50;4931266;29;20047;-85
2022/10/21 13:16:45;;;;;;;7.95;5.18;;;;;;;16.73;100.00;68625.22;4919197;29;20102;-85
2022/10/21 13:19:16;;;;;;;7.85;4.55;;;;;;;16.79;100.00;68631.50;4850752;29;20048;-86
2022/10/21 13:22:09;;;;;;;10.48;5.38;;;;;;;16.91;100.00;68648.44;4828207;29;20457;-85
2022/10/21 13:24:45;;;;;;;7.90;5.45;;;;;;;17.00;100.00;68652.75;4803303;29;20074;-86
2022/10/21 13:27:31;;;;;;;9.70;5.38;;;;;;;17.04;100.00;68656.78;4769365;29;20058;-88
2022/10/21 13:30:05;;;;;;;9.43;6.00;;;;;;;17.24;100.00;68681.69;4740386;29;20432;-85
2022/10/21 13:32:34;;;;;;;10.70;4.70;;;;;;;17.37;100.00;68696.50;4723782;30;20512;-86
2022/10/21 13:35:01;;;;;;;12.43;4.88;;;;;;;17.30;100.00;68691.81;4712284;30;31080;-86
